sensor_id;sensor_type;location;lat;lon;timestamp;P1;durP1;ratioP1;P2;durP2;ratioP2
33862;SDS011;20158;51.436;-2.742;2023-12-22T00:00:47;6.75;;;1.73;;
33862;SDS011;20158;51.436;-2.742;2023-12-22T00:03:14;8.20;;;2.03;;
33862;SDS011;20158;51.436;-2.742;2023-12-22T00:05:40;4.25;;;1.55;;
33862;SDS011;20158;51.436;-2.742;2023-12-22T00:08:07;4.82;;;1.75;;
33862;SDS011;20158;51.436;-2.742;2023-12-22T00:10:34;5.47;;;2.10;;
33862;SDS011;20158;51.436;-2.742;2023-12-22T00:13:00;5.40;;;1.70;;
33862;SDS011;20158;51.436;-2.742;2023-12-22T00:15:26;7.50;;;1.92;;
33862;SDS011;20158;51.436;-2.742;2023-12-22T00:17:54;3.53;;;1.50;;
33862;SDS011;20158;51.436;-2.742;2023-12-22T00:20:20;3.25;;;1.23;;
33862;SDS011;20158;51.436;-2.742;2023-12-22T00:22:46;7.75;;;1.88;;
33862;SDS011;20158;51.436;-2.742;2023-12-22T00:25:12;6.07;;;2.00;;
33862;SDS011;20158;51.436;-2.742;2023-12-22T00:27:38;4.82;;;1.55;;
33862;SDS011;20158;51.436;-2.742;2023-12-22T00:30:05;5.97;;;1.50;;
33862;SDS011;20158;51.436;-2.742;2023-12-22T00:32:31;4.65;;;1.63;;
33862;SDS011;20158;51.436;-2.742;2023-12-22T00:34:57;5.93;;;1.90;;
33862;SDS011;20158;51.436;-2.742;2023-12-22T00:37:23;5.30;;;1.60;;
33862;SDS011;20158;51.436;-2.742;2023-12-22T00:39:49;7.50;;;2.17;;
33862;SDS011;20158;51.436;-2.742;2023-12-22T00:42:15;7.30;;;2.28;;
33862;SDS011;20158;51.436;-2.742;2023-12-22T00:44:41;6.95;;;1.98;;
33862;SDS011;20158;51.436;-2.742;2023-12-22T00:47:07;6.00;;;1.85;;
33862;SDS011;20158;51.436;-2.742;2023-12-22T00:49:33;5.68;;;1.80;;
33862;SDS011;20158;51.436;-2.742;2023-12-22T00:51:59;8.23;;;1.88;;
33862;SDS011;20158;51.436;-2.742;2023-12-22T00:54:26;6.07;;;1.70;;
33862;SDS011;20158;51.436;-2.742;2023-12-22T00:56:55;8.27;;;1.67;;
33862;SDS011;20158;51.436;-2.742;2023-12-22T00:59:21;8.65;;;2.80;;
33862;SDS011;20158;51.436;-2.742;2023-12-22T01:01:47;8.52;;;1.65;;
33862;SDS011;20158;51.436;-2.742;2023-12-22T01:04:13;6.18;;;1.83;;
33862;SDS011;20158;51.436;-2.742;2023-12-22T01:06:40;4.25;;;1.70;;
33862;SDS011;20158;51.436;-2.742;2023-12-22T01:09:06;4.75;;;2.33;;
33862;SDS011;20158;51.436;-2.742;2023-12-22T01:11:32;5.85;;;2.55;;
33862;SDS011;20158;51.436;-2.742;2023-12-22T01:13:59;5.00;;;1.95;;
33862;SDS011;20158;51.436;-2.742;2023-12-22T01:16:26;6.45;;;1.95;;
33862;SDS011;20158;51.436;-2.742;2023-12-22T01:18:53;7.15;;;2.00;;
33862;SDS011;20158;51.436;-2.742;2023-12-22T01:21:19;10.27;;;2.13;;
33862;SDS011;20158;51.436;-2.742;2023-12-22T01:23:47;4.40;;;1.85;;
33862;SDS011;20158;51.436;-2.742;2023-12-22T01:26:13;5.25;;;2.00;;
33862;SDS011;20158;51.436;-2.742;2023-12-22T01:28:40;3.60;;;1.42;;
33862;SDS011;20158;51.436;-2.742;2023-12-22T01:31:06;9.68;;;1.77;;
33862;SDS011;20158;51.436;-2.742;2023-12-22T01:33:32;5.82;;;1.50;;
33862;SDS011;20158;51.436;-2.742;2023-12-22T01:35:58;6.50;;;1.88;;
33862;SDS011;20158;51.436;-2.742;2023-12-22T01:38:24;5.57;;;1.90;;
33862;SDS011;20158;51.436;-2.742;2023-12-22T01:40:50;4.65;;;1.80;;
33862;SDS011;20158;51.436;-2.742;2023-12-22T01:43:16;6.80;;;2.08;;
33862;SDS011;20158;51.436;-2.742;2023-12-22T01:45:55;5.40;;;1.77;;
33862;SDS011;20158;51.436;-2.742;2023-12-22T01:48:23;6.10;;;1.95;;
33862;SDS011;20158;51.436;-2.742;2023-12-22T01:50:51;5.03;;;1.50;;
33862;SDS011;20158;51.436;-2.742;2023-12-22T01:53:20;6.03;;;2.15;;
33862;SDS011;20158;51.436;-2.742;2023-12-22T01:55:48;5.95;;;1.48;;
33862;SDS011;20158;51.436;-2.742;2023-12-22T01:58:15;5.80;;;2.05;;
33862;SDS011;20158;51.436;-2.742;2023-12-22T02:00:43;5.90;;;2.03;;
33862;SDS011;20158;51.436;-2.742;2023-12-22T02:03:09;3.95;;;1.42;;
33862;SDS011;20158;51.436;-2.742;2023-12-22T02:05:36;6.43;;;2.08;;
33862;SDS011;20158;51.436;-2.742;2023-12-22T02:08:02;2.65;;;1.20;;
33862;SDS011;20158;51.436;-2.742;2023-12-22T02:10:28;5.85;;;1.77;;
33862;SDS011;20158;51.436;-2.742;2023-12-22T02:12:54;4.90;;;1.40;;
33862;SDS011;20158;51.436;-2.742;2023-12-22T02:15:28;5.68;;;1.73;;
33862;SDS011;20158;51.436;-2.742;2023-12-22T02:18:07;6.15;;;1.58;;
33862;SDS011;20158;51.436;-2.742;2023-12-22T02:20:38;4.30;;;1.30;;
33862;SDS011;20158;51.436;-2.742;2023-12-22T02:23:05;4.47;;;1.48;;
33862;SDS011;20158;51.436;-2.742;2023-12-22T02:25:31;3.80;;;1.40;;
33862;SDS011;20158;51.436;-2.742;2023-12-22T02:28:05;5.38;;;1.52;;
33862;SDS011;20158;51.436;-2.742;2023-12-22T02:31:18;8.63;;;1.85;;
33862;SDS011;20158;51.436;-2.742;2023-12-22T02:33:38;6.53;;;1.88;;
33862;SDS011;20158;51.436;-2.742;2023-12-22T02:36:07;6.70;;;1.25;;
33862;SDS011;20158;51.436;-2.742;2023-12-22T02:38:39;6.85;;;1.45;;
33862;SDS011;20158;51.436;-2.742;2023-12-22T02:41:09;5.22;;;1.85;;
33862;SDS011;20158;51.436;-2.742;2023-12-22T02:43:36;5.90;;;1.65;;
33862;SDS011;20158;51.436;-2.742;2023-12-22T02:46:02;5.63;;;1.50;;
33862;SDS011;20158;51.436;-2.742;2023-12-22T02:48:28;9.07;;;2.72;;
33862;SDS011;20158;51.436;-2.742;2023-12-22T02:50:54;5.22;;;1.83;;
33862;SDS011;20158;51.436;-2.742;2023-12-22T02:53:21;6.63;;;1.70;;
33862;SDS011;20158;51.436;-2.742;2023-12-22T02:55:48;6.95;;;2.13;;
33862;SDS011;20158;51.436;-2.742;2023-12-22T02:58:14;6.05;;;1.65;;
33862;SDS011;20158;51.436;-2.742;2023-12-22T03:00:40;8.93;;;1.60;;
33862;SDS011;20158;51.436;-2.742;2023-12-22T03:03:06;5.57;;;1.48;;
33862;SDS011;20158;51.436;-2.742;2023-12-22T03:05:32;5.55;;;1.80;;
33862;SDS011;20158;51.436;-2.742;2023-12-22T03:07:58;7.05;;;1.92;;
33862;SDS011;20158;51.436;-2.742;2023-12-22T03:10:24;6.15;;;1.30;;
33862;SDS011;20158;51.436;-2.742;2023-12-22T03:12:51;9.25;;;2.05;;
33862;SDS011;20158;51.436;-2.742;2023-12-22T03:15:17;4.97;;;1.75;;
33862;SDS011;20158;51.436;-2.742;2023-12-22T03:17:43;5.05;;;1.77;;
33862;SDS011;20158;51.436;-2.742;2023-12-22T03:20:09;5.90;;;1.55;;
33862;SDS011;20158;51.436;-2.742;2023-12-22T03:22:35;6.70;;;1.83;;
33862;SDS011;20158;51.436;-2.742;2023-12-22T03:25:01;3.83;;;1.40;;
33862;SDS011;20158;51.436;-2.742;2023-12-22T03:27:27;4.57;;;1.42;;
33862;SDS011;20158;51.436;-2.742;2023-12-22T03:29:53;2.83;;;1.08;;
33862;SDS011;20158;51.436;-2.742;2023-12-22T03:32:20;2.58;;;0.82;;
33862;SDS011;20158;51.436;-2.742;2023-12-22T03:34:47;4.07;;;1.35;;
33862;SDS011;20158;51.436;-2.742;2023-12-22T03:37:13;4.57;;;1.30;;
33862;SDS011;20158;51.436;-2.742;2023-12-22T03:39:40;4.30;;;1.40;;
33862;SDS011;20158;51.436;-2.742;2023-12-22T03:42:06;4.38;;;1.70;;
33862;SDS011;20158;51.436;-2.742;2023-12-22T03:44:33;7.28;;;1.20;;
33862;SDS011;20158;51.436;-2.742;2023-12-22T03:46:59;3.45;;;1.20;;
33862;SDS011;20158;51.436;-2.742;2023-12-22T03:49:25;4.72;;;1.70;;
33862;SDS011;20158;51.436;-2.742;2023-12-22T03:51:51;6.10;;;1.40;;
33862;SDS011;20158;51.436;-2.742;2023-12-22T03:54:17;3.88;;;1.15;;
33862;SDS011;20158;51.436;-2.742;2023-12-22T03:56:44;4.45;;;1.95;;
33862;SDS011;20158;51.436;-2.742;2023-12-22T03:59:10;5.20;;;1.45;;
33862;SDS011;20158;51.436;-2.742;2023-12-22T04:01:36;7.18;;;1.48;;
33862;SDS011;20158;51.436;-2.742;2023-12-22T04:04:02;2.10;;;1.02;;
33862;SDS011;20158;51.436;-2.742;2023-12-22T04:06:32;3.58;;;1.38;;
33862;SDS011;20158;51.436;-2.742;2023-12-22T04:08:58;6.68;;;1.20;;
33862;SDS011;20158;51.436;-2.742;2023-12-22T04:11:25;5.53;;;1.20;;
33862;SDS011;20158;51.436;-2.742;2023-12-22T04:13:51;3.15;;;1.30;;
33862;SDS011;20158;51.436;-2.742;2023-12-22T04:16:17;3.55;;;1.10;;
33862;SDS011;20158;51.436;-2.742;2023-12-22T04:18:44;6.07;;;1.20;;
33862;SDS011;20158;51.436;-2.742;2023-12-22T04:21:10;3.47;;;1.50;;
33862;SDS011;20158;51.436;-2.742;2023-12-22T04:23:36;4.63;;;1.33;;
33862;SDS011;20158;51.436;-2.742;2023-12-22T04:26:02;4.72;;;1.50;;
33862;SDS011;20158;51.436;-2.742;2023-12-22T04:28:28;3.83;;;1.27;;
33862;SDS011;20158;51.436;-2.742;2023-12-22T04:30:54;3.72;;;1.30;;
33862;SDS011;20158;51.436;-2.742;2023-12-22T04:33:19;2.95;;;1.10;;
33862;SDS011;20158;51.436;-2.742;2023-12-22T04:35:45;2.90;;;1.17;;
33862;SDS011;20158;51.436;-2.742;2023-12-22T04:38:11;3.25;;;1.13;;
33862;SDS011;20158;51.436;-2.742;2023-12-22T04:40:39;4.13;;;1.00;;
33862;SDS011;20158;51.436;-2.742;2023-12-22T04:43:05;6.85;;;1.50;;
33862;SDS011;20158;51.436;-2.742;2023-12-22T04:45:31;4.63;;;1.38;;
33862;SDS011;20158;51.436;-2.742;2023-12-22T04:47:57;2.85;;;1.20;;
33862;SDS011;20158;51.436;-2.742;2023-12-22T04:50:22;4.20;;;1.70;;
33862;SDS011;20158;51.436;-2.742;2023-12-22T04:52:51;4.85;;;1.27;;
33862;SDS011;20158;51.436;-2.742;2023-12-22T04:55:18;5.35;;;1.48;;
33862;SDS011;20158;51.436;-2.742;2023-12-22T04:57:44;5.97;;;1.65;;
33862;SDS011;20158;51.436;-2.742;2023-12-22T05:00:11;2.40;;;1.08;;
33862;SDS011;20158;51.436;-2.742;2023-12-22T05:02:37;5.32;;;1.70;;
33862;SDS011;20158;51.436;-2.742;2023-12-22T05:05:03;5.80;;;1.30;;
33862;SDS011;20158;51.436;-2.742;2023-12-22T05:07:29;3.78;;;1.35;;
33862;SDS011;20158;51.436;-2.742;2023-12-22T05:09:56;4.85;;;2.20;;
33862;SDS011;20158;51.436;-2.742;2023-12-22T05:12:22;5.43;;;1.70;;
33862;SDS011;20158;51.436;-2.742;2023-12-22T05:14:48;3.38;;;1.73;;
33862;SDS011;20158;51.436;-2.742;2023-12-22T05:17:14;6.47;;;1.83;;
33862;SDS011;20158;51.436;-2.742;2023-12-22T05:19:40;5.47;;;2.28;;
33862;SDS011;20158;51.436;-2.742;2023-12-22T05:22:06;5.07;;;1.42;;
33862;SDS011;20158;51.436;-2.742;2023-12-22T05:24:33;4.90;;;1.58;;
33862;SDS011;20158;51.436;-2.742;2023-12-22T05:26:59;4.03;;;1.23;;
33862;SDS011;20158;51.436;-2.742;2023-12-22T05:29:25;4.70;;;1.58;;
33862;SDS011;20158;51.436;-2.742;2023-12-22T05:31:51;6.85;;;2.10;;
33862;SDS011;20158;51.436;-2.742;2023-12-22T05:34:19;5.05;;;1.63;;
33862;SDS011;20158;51.436;-2.742;2023-12-22T05:36:45;4.70;;;1.48;;
33862;SDS011;20158;51.436;-2.742;2023-12-22T05:39:11;5.15;;;1.38;;
33862;SDS011;20158;51.436;-2.742;2023-12-22T05:41:37;3.70;;;1.45;;
33862;SDS011;20158;51.436;-2.742;2023-12-22T05:44:04;7.43;;;2.17;;
33862;SDS011;20158;51.436;-2.742;2023-12-22T05:46:40;4.68;;;1.67;;
33862;SDS011;20158;51.436;-2.742;2023-12-22T05:49:07;4.03;;;1.50;;
33862;SDS011;20158;51.436;-2.742;2023-12-22T05:51:40;5.80;;;1.50;;
33862;SDS011;20158;51.436;-2.742;2023-12-22T05:54:08;5.85;;;2.28;;
33862;SDS011;20158;51.436;-2.742;2023-12-22T05:56:36;4.75;;;2.08;;
33862;SDS011;20158;51.436;-2.742;2023-12-22T05:59:02;5.82;;;1.95;;
33862;SDS011;20158;51.436;-2.742;2023-12-22T06:01:29;5.78;;;1.95;;
33862;SDS011;20158;51.436;-2.742;2023-12-22T06:03:55;6.00;;;2.20;;
33862;SDS011;20158;51.436;-2.742;2023-12-22T06:06:21;4.93;;;1.65;;
33862;SDS011;20158;51.436;-2.742;2023-12-22T06:08:47;7.07;;;2.05;;
33862;SDS011;20158;51.436;-2.742;2023-12-22T06:11:13;8.07;;;3.05;;
33862;SDS011;20158;51.436;-2.742;2023-12-22T06:13:39;6.38;;;2.03;;
33862;SDS011;20158;51.436;-2.742;2023-12-22T06:16:05;8.23;;;1.85;;
33862;SDS011;20158;51.436;-2.742;2023-12-22T06:18:31;11.75;;;2.38;;
33862;SDS011;20158;51.436;-2.742;2023-12-22T06:20:57;7.70;;;2.10;;
33862;SDS011;20158;51.436;-2.742;2023-12-22T06:23:23;6.93;;;2.55;;
33862;SDS011;20158;51.436;-2.742;2023-12-22T06:25:49;6.80;;;2.13;;
33862;SDS011;20158;51.436;-2.742;2023-12-22T06:28:15;8.52;;;2.97;;
33862;SDS011;20158;51.436;-2.742;2023-12-22T06:30:43;8.32;;;2.03;;
33862;SDS011;20158;51.436;-2.742;2023-12-22T06:33:09;8.15;;;2.35;;
33862;SDS011;20158;51.436;-2.742;2023-12-22T06:35:36;7.85;;;2.55;;
33862;SDS011;20158;51.436;-2.742;2023-12-22T06:38:02;7.45;;;2.70;;
33862;SDS011;20158;51.436;-2.742;2023-12-22T06:40:30;6.82;;;1.98;;
33862;SDS011;20158;51.436;-2.742;2023-12-22T06:42:56;13.00;;;2.80;;
33862;SDS011;20158;51.436;-2.742;2023-12-22T06:45:23;10.57;;;2.85;;
33862;SDS011;20158;51.436;-2.742;2023-12-22T06:47:48;11.25;;;2.58;;
33862;SDS011;20158;51.436;-2.742;2023-12-22T06:50:17;12.63;;;3.67;;
33862;SDS011;20158;51.436;-2.742;2023-12-22T06:52:45;9.93;;;2.78;;
33862;SDS011;20158;51.436;-2.742;2023-12-22T06:55:11;12.25;;;2.30;;
33862;SDS011;20158;51.436;-2.742;2023-12-22T06:57:37;7.90;;;2.20;;
33862;SDS011;20158;51.436;-2.742;2023-12-22T07:00:03;6.32;;;2.30;;
33862;SDS011;20158;51.436;-2.742;2023-12-22T07:02:30;12.20;;;2.60;;
33862;SDS011;20158;51.436;-2.742;2023-12-22T07:05:38;11.38;;;3.15;;
33862;SDS011;20158;51.436;-2.742;2023-12-22T07:07:46;7.15;;;2.33;;
33862;SDS011;20158;51.436;-2.742;2023-12-22T07:10:13;14.85;;;3.15;;
33862;SDS011;20158;51.436;-2.742;2023-12-22T07:12:42;28.10;;;6.18;;
33862;SDS011;20158;51.436;-2.742;2023-12-22T07:15:08;24.23;;;5.75;;
33862;SDS011;20158;51.436;-2.742;2023-12-22T07:17:34;29.63;;;7.18;;
33862;SDS011;20158;51.436;-2.742;2023-12-22T07:20:00;22.30;;;6.40;;
33862;SDS011;20158;51.436;-2.742;2023-12-22T07:22:28;25.15;;;4.78;;
33862;SDS011;20158;51.436;-2.742;2023-12-22T07:24:57;17.35;;;5.45;;
33862;SDS011;20158;51.436;-2.742;2023-12-22T07:27:23;18.63;;;4.18;;
33862;SDS011;20158;51.436;-2.742;2023-12-22T07:29:49;21.00;;;4.70;;
33862;SDS011;20158;51.436;-2.742;2023-12-22T07:32:15;17.38;;;4.85;;
33862;SDS011;20158;51.436;-2.742;2023-12-22T07:34:41;25.45;;;6.30;;
33862;SDS011;20158;51.436;-2.742;2023-12-22T07:37:07;19.98;;;3.50;;
33862;SDS011;20158;51.436;-2.742;2023-12-22T07:39:34;14.55;;;3.33;;
33862;SDS011;20158;51.436;-2.742;2023-12-22T07:42:00;15.13;;;6.65;;
33862;SDS011;20158;51.436;-2.742;2023-12-22T07:44:26;14.02;;;4.72;;
33862;SDS011;20158;51.436;-2.742;2023-12-22T07:46:58;13.07;;;3.20;;
33862;SDS011;20158;51.436;-2.742;2023-12-22T07:49:25;13.07;;;3.60;;
33862;SDS011;20158;51.436;-2.742;2023-12-22T07:51:52;15.23;;;3.35;;
33862;SDS011;20158;51.436;-2.742;2023-12-22T07:54:18;13.27;;;3.58;;
33862;SDS011;20158;51.436;-2.742;2023-12-22T07:56:44;12.85;;;4.15;;
33862;SDS011;20158;51.436;-2.742;2023-12-22T07:59:10;14.95;;;3.70;;
33862;SDS011;20158;51.436;-2.742;2023-12-22T08:01:36;15.23;;;3.65;;
33862;SDS011;20158;51.436;-2.742;2023-12-22T08:04:03;10.55;;;3.50;;
33862;SDS011;20158;51.436;-2.742;2023-12-22T08:06:29;13.85;;;3.60;;
33862;SDS011;20158;51.436;-2.742;2023-12-22T08:08:57;11.60;;;3.22;;
33862;SDS011;20158;51.436;-2.742;2023-12-22T08:11:22;14.10;;;3.92;;
33862;SDS011;20158;51.436;-2.742;2023-12-22T08:13:50;12.00;;;3.67;;
33862;SDS011;20158;51.436;-2.742;2023-12-22T08:16:17;14.32;;;3.58;;
33862;SDS011;20158;51.436;-2.742;2023-12-22T08:18:45;9.48;;;3.63;;
33862;SDS011;20158;51.436;-2.742;2023-12-22T08:21:14;19.30;;;4.28;;
33862;SDS011;20158;51.436;-2.742;2023-12-22T08:23:42;14.10;;;3.45;;
33862;SDS011;20158;51.436;-2.742;2023-12-22T08:26:07;10.23;;;2.58;;
33862;SDS011;20158;51.436;-2.742;2023-12-22T08:28:34;10.55;;;2.95;;
33862;SDS011;20158;51.436;-2.742;2023-12-22T08:31:01;11.90;;;3.00;;
33862;SDS011;20158;51.436;-2.742;2023-12-22T08:33:28;16.75;;;3.58;;
33862;SDS011;20158;51.436;-2.742;2023-12-22T08:35:53;12.98;;;4.40;;
33862;SDS011;20158;51.436;-2.742;2023-12-22T08:38:19;19.05;;;4.05;;
33862;SDS011;20158;51.436;-2.742;2023-12-22T08:40:45;11.50;;;2.65;;
33862;SDS011;20158;51.436;-2.742;2023-12-22T08:43:11;10.18;;;3.42;;
33862;SDS011;20158;51.436;-2.742;2023-12-22T08:45:38;13.05;;;3.72;;
33862;SDS011;20158;51.436;-2.742;2023-12-22T08:48:04;11.05;;;3.63;;
33862;SDS011;20158;51.436;-2.742;2023-12-22T08:50:34;11.13;;;2.78;;
33862;SDS011;20158;51.436;-2.742;2023-12-22T08:53:00;13.27;;;2.72;;
33862;SDS011;20158;51.436;-2.742;2023-12-22T08:55:27;10.25;;;3.15;;
33862;SDS011;20158;51.436;-2.742;2023-12-22T08:57:53;11.48;;;3.10;;
33862;SDS011;20158;51.436;-2.742;2023-12-22T09:00:19;15.65;;;3.90;;
33862;SDS011;20158;51.436;-2.742;2023-12-22T09:02:47;9.73;;;2.88;;
33862;SDS011;20158;51.436;-2.742;2023-12-22T09:05:13;17.40;;;3.33;;
33862;SDS011;20158;51.436;-2.742;2023-12-22T09:07:40;15.40;;;3.22;;
33862;SDS011;20158;51.436;-2.742;2023-12-22T09:10:06;10.73;;;3.30;;
33862;SDS011;20158;51.436;-2.742;2023-12-22T09:12:33;14.82;;;4.53;;
33862;SDS011;20158;51.436;-2.742;2023-12-22T09:15:00;13.02;;;3.15;;
33862;SDS011;20158;51.436;-2.742;2023-12-22T09:17:26;17.80;;;3.75;;
33862;SDS011;20158;51.436;-2.742;2023-12-22T09:19:54;11.13;;;3.17;;
33862;SDS011;20158;51.436;-2.742;2023-12-22T09:22:22;13.70;;;2.97;;
33862;SDS011;20158;51.436;-2.742;2023-12-22T09:24:48;11.05;;;3.58;;
33862;SDS011;20158;51.436;-2.742;2023-12-22T09:27:14;14.90;;;3.60;;
33862;SDS011;20158;51.436;-2.742;2023-12-22T09:29:41;13.50;;;3.30;;
33862;SDS011;20158;51.436;-2.742;2023-12-22T09:32:07;12.63;;;2.90;;
33862;SDS011;20158;51.436;-2.742;2023-12-22T09:34:33;14.50;;;3.30;;
33862;SDS011;20158;51.436;-2.742;2023-12-22T09:36:59;10.32;;;2.75;;
33862;SDS011;20158;51.436;-2.742;2023-12-22T09:39:26;12.55;;;3.47;;
33862;SDS011;20158;51.436;-2.742;2023-12-22T09:41:54;10.20;;;2.95;;
33862;SDS011;20158;51.436;-2.742;2023-12-22T09:44:21;10.73;;;3.35;;
33862;SDS011;20158;51.436;-2.742;2023-12-22T09:46:47;10.68;;;2.63;;
33862;SDS011;20158;51.436;-2.742;2023-12-22T09:49:23;11.43;;;2.78;;
33862;SDS011;20158;51.436;-2.742;2023-12-22T09:51:50;9.55;;;3.47;;
33862;SDS011;20158;51.436;-2.742;2023-12-22T09:54:17;13.07;;;3.15;;
33862;SDS011;20158;51.436;-2.742;2023-12-22T09:56:45;15.38;;;4.10;;
33862;SDS011;20158;51.436;-2.742;2023-12-22T09:59:12;12.77;;;3.70;;
33862;SDS011;20158;51.436;-2.742;2023-12-22T10:01:42;14.00;;;3.67;;
33862;SDS011;20158;51.436;-2.742;2023-12-22T10:04:12;14.32;;;3.58;;
33862;SDS011;20158;51.436;-2.742;2023-12-22T10:06:39;11.57;;;3.80;;
33862;SDS011;20158;51.436;-2.742;2023-12-22T10:09:06;11.82;;;2.97;;
33862;SDS011;20158;51.436;-2.742;2023-12-22T10:11:35;13.13;;;3.33;;
33862;SDS011;20158;51.436;-2.742;2023-12-22T10:14:02;14.60;;;3.65;;
33862;SDS011;20158;51.436;-2.742;2023-12-22T10:16:30;10.23;;;3.20;;
33862;SDS011;20158;51.436;-2.742;2023-12-22T10:18:56;12.43;;;3.90;;
33862;SDS011;20158;51.436;-2.742;2023-12-22T10:21:25;10.30;;;3.10;;
33862;SDS011;20158;51.436;-2.742;2023-12-22T10:23:51;12.75;;;3.38;;
33862;SDS011;20158;51.436;-2.742;2023-12-22T10:26:22;13.52;;;4.05;;
33862;SDS011;20158;51.436;-2.742;2023-12-22T10:28:48;12.98;;;4.25;;
33862;SDS011;20158;51.436;-2.742;2023-12-22T10:31:16;14.35;;;3.65;;
33862;SDS011;20158;51.436;-2.742;2023-12-22T10:33:43;10.38;;;2.78;;
33862;SDS011;20158;51.436;-2.742;2023-12-22T10:36:10;12.52;;;3.08;;
33862;SDS011;20158;51.436;-2.742;2023-12-22T10:38:36;10.73;;;3.85;;
33862;SDS011;20158;51.436;-2.742;2023-12-22T10:41:02;11.10;;;3.72;;
33862;SDS011;20158;51.436;-2.742;2023-12-22T10:43:30;12.63;;;3.58;;
33862;SDS011;20158;51.436;-2.742;2023-12-22T10:46:01;10.05;;;2.75;;
33862;SDS011;20158;51.436;-2.742;2023-12-22T10:48:29;12.77;;;2.90;;
33862;SDS011;20158;51.436;-2.742;2023-12-22T10:50:58;12.15;;;2.60;;
33862;SDS011;20158;51.436;-2.742;2023-12-22T10:53:25;13.02;;;4.28;;
33862;SDS011;20158;51.436;-2.742;2023-12-22T10:55:52;16.15;;;3.10;;
33862;SDS011;20158;51.436;-2.742;2023-12-22T10:58:19;19.20;;;3.67;;
33862;SDS011;20158;51.436;-2.742;2023-12-22T11:00:46;13.60;;;2.80;;
33862;SDS011;20158;51.436;-2.742;2023-12-22T11:03:17;11.88;;;3.03;;
33862;SDS011;20158;51.436;-2.742;2023-12-22T11:05:45;14.45;;;3.45;;
33862;SDS011;20158;51.436;-2.742;2023-12-22T11:08:13;11.07;;;2.72;;
33862;SDS011;20158;51.436;-2.742;2023-12-22T11:10:41;11.13;;;2.58;;
33862;SDS011;20158;51.436;-2.742;2023-12-22T11:13:10;12.23;;;2.95;;
33862;SDS011;20158;51.436;-2.742;2023-12-22T11:15:38;10.95;;;3.25;;
33862;SDS011;20158;51.436;-2.742;2023-12-22T11:18:07;17.20;;;3.63;;
33862;SDS011;20158;51.436;-2.742;2023-12-22T11:20:36;14.38;;;3.30;;
33862;SDS011;20158;51.436;-2.742;2023-12-22T11:23:04;13.18;;;3.95;;
33862;SDS011;20158;51.436;-2.742;2023-12-22T11:25:32;9.13;;;3.30;;
33862;SDS011;20158;51.436;-2.742;2023-12-22T11:28:01;9.00;;;2.95;;
33862;SDS011;20158;51.436;-2.742;2023-12-22T11:30:29;12.15;;;4.28;;
33862;SDS011;20158;51.436;-2.742;2023-12-22T11:32:57;11.10;;;3.13;;
33862;SDS011;20158;51.436;-2.742;2023-12-22T11:35:24;9.95;;;2.85;;
33862;SDS011;20158;51.436;-2.742;2023-12-22T11:37:51;8.32;;;2.72;;
33862;SDS011;20158;51.436;-2.742;2023-12-22T11:40:20;15.80;;;3.05;;
33862;SDS011;20158;51.436;-2.742;2023-12-22T11:42:47;8.98;;;2.13;;
33862;SDS011;20158;51.436;-2.742;2023-12-22T11:45:17;8.35;;;2.42;;
33862;SDS011;20158;51.436;-2.742;2023-12-22T11:47:44;10.05;;;2.08;;
33862;SDS011;20158;51.436;-2.742;2023-12-22T11:50:11;8.27;;;2.33;;
33862;SDS011;20158;51.436;-2.742;2023-12-22T11:52:38;10.95;;;2.85;;
33862;SDS011;20158;51.436;-2.742;2023-12-22T11:55:05;9.60;;;2.25;;
33862;SDS011;20158;51.436;-2.742;2023-12-22T11:57:32;11.52;;;3.10;;
33862;SDS011;20158;51.436;-2.742;2023-12-22T12:00:09;10.35;;;2.40;;
33862;SDS011;20158;51.436;-2.742;2023-12-22T12:02:40;7.15;;;2.20;;
33862;SDS011;20158;51.436;-2.742;2023-12-22T12:05:08;9.07;;;2.72;;
33862;SDS011;20158;51.436;-2.742;2023-12-22T12:07:44;8.82;;;2.17;;
33862;SDS011;20158;51.436;-2.742;2023-12-22T12:13:05;8.00;;;2.25;;
33862;SDS011;20158;51.436;-2.742;2023-12-22T12:15:37;15.25;;;4.28;;
33862;SDS011;20158;51.436;-2.742;2023-12-22T12:18:04;6.50;;;2.15;;
33862;SDS011;20158;51.436;-2.742;2023-12-22T12:20:34;12.70;;;3.00;;
33862;SDS011;20158;51.436;-2.742;2023-12-22T12:23:03;12.57;;;2.90;;
33862;SDS011;20158;51.436;-2.742;2023-12-22T12:25:32;11.77;;;2.85;;
33862;SDS011;20158;51.436;-2.742;2023-12-22T12:28:06;8.25;;;3.50;;
33862;SDS011;20158;51.436;-2.742;2023-12-22T12:30:36;9.60;;;3.05;;
33862;SDS011;20158;51.436;-2.742;2023-12-22T12:33:10;9.32;;;2.60;;
33862;SDS011;20158;51.436;-2.742;2023-12-22T12:35:38;10.70;;;2.05;;
33862;SDS011;20158;51.436;-2.742;2023-12-22T12:38:06;6.47;;;2.33;;
33862;SDS011;20158;51.436;-2.742;2023-12-22T12:40:34;7.05;;;2.53;;
33862;SDS011;20158;51.436;-2.742;2023-12-22T12:43:04;7.63;;;2.30;;
33862;SDS011;20158;51.436;-2.742;2023-12-22T12:45:31;6.72;;;1.77;;
33862;SDS011;20158;51.436;-2.742;2023-12-22T12:47:59;9.93;;;2.67;;
33862;SDS011;20158;51.436;-2.742;2023-12-22T12:50:26;9.45;;;2.60;;
33862;SDS011;20158;51.436;-2.742;2023-12-22T12:52:54;8.50;;;2.30;;
33862;SDS011;20158;51.436;-2.742;2023-12-22T12:55:24;6.72;;;2.35;;
33862;SDS011;20158;51.436;-2.742;2023-12-22T12:57:51;6.75;;;2.03;;
33862;SDS011;20158;51.436;-2.742;2023-12-22T13:00:25;9.00;;;2.00;;
33862;SDS011;20158;51.436;-2.742;2023-12-22T13:03:01;7.88;;;3.25;;
33862;SDS011;20158;51.436;-2.742;2023-12-22T13:05:30;3.55;;;1.75;;
33862;SDS011;20158;51.436;-2.742;2023-12-22T13:08:06;7.10;;;2.58;;
33862;SDS011;20158;51.436;-2.742;2023-12-22T13:10:37;10.15;;;2.30;;
33862;SDS011;20158;51.436;-2.742;2023-12-22T13:13:05;3.92;;;1.52;;
33862;SDS011;20158;51.436;-2.742;2023-12-22T13:15:32;6.40;;;1.67;;
33862;SDS011;20158;51.436;-2.742;2023-12-22T13:17:59;4.88;;;1.65;;
33862;SDS011;20158;51.436;-2.742;2023-12-22T13:20:25;4.55;;;1.77;;
33862;SDS011;20158;51.436;-2.742;2023-12-22T13:22:52;7.57;;;2.17;;
33862;SDS011;20158;51.436;-2.742;2023-12-22T13:25:18;3.05;;;1.40;;
33862;SDS011;20158;51.436;-2.742;2023-12-22T13:27:47;7.68;;;1.73;;
33862;SDS011;20158;51.436;-2.742;2023-12-22T13:30:18;7.60;;;1.95;;
33862;SDS011;20158;51.436;-2.742;2023-12-22T13:33:07;7.78;;;2.70;;
33862;SDS011;20158;51.436;-2.742;2023-12-22T13:35:34;8.50;;;2.60;;
33862;SDS011;20158;51.436;-2.742;2023-12-22T13:38:06;6.95;;;2.92;;
33862;SDS011;20158;51.436;-2.742;2023-12-22T13:40:34;7.75;;;1.98;;
33862;SDS011;20158;51.436;-2.742;2023-12-22T13:43:01;8.70;;;2.03;;
33862;SDS011;20158;51.436;-2.742;2023-12-22T13:45:28;4.43;;;1.70;;
33862;SDS011;20158;51.436;-2.742;2023-12-22T13:47:55;7.05;;;1.77;;
33862;SDS011;20158;51.436;-2.742;2023-12-22T13:50:21;8.32;;;2.15;;
33862;SDS011;20158;51.436;-2.742;2023-12-22T13:52:50;5.68;;;1.55;;
33862;SDS011;20158;51.436;-2.742;2023-12-22T13:55:18;5.78;;;1.92;;
33862;SDS011;20158;51.436;-2.742;2023-12-22T13:57:45;7.50;;;1.98;;
33862;SDS011;20158;51.436;-2.742;2023-12-22T14:02:47;7.57;;;2.00;;
33862;SDS011;20158;51.436;-2.742;2023-12-22T14:05:17;11.80;;;2.20;;
33862;SDS011;20158;51.436;-2.742;2023-12-22T14:07:43;5.47;;;2.45;;
33862;SDS011;20158;51.436;-2.742;2023-12-22T14:10:10;6.50;;;2.88;;
33862;SDS011;20158;51.436;-2.742;2023-12-22T14:12:36;7.35;;;2.40;;
33862;SDS011;20158;51.436;-2.742;2023-12-22T14:15:06;5.85;;;1.50;;
33862;SDS011;20158;51.436;-2.742;2023-12-22T14:20:04;6.65;;;2.10;;
33862;SDS011;20158;51.436;-2.742;2023-12-22T14:22:33;5.40;;;1.50;;
33862;SDS011;20158;51.436;-2.742;2023-12-22T14:25:01;5.32;;;2.45;;
33862;SDS011;20158;51.436;-2.742;2023-12-22T14:27:30;5.43;;;2.05;;
33862;SDS011;20158;51.436;-2.742;2023-12-22T14:29:57;5.35;;;1.50;;
33862;SDS011;20158;51.436;-2.742;2023-12-22T14:32:23;6.63;;;1.73;;
33862;SDS011;20158;51.436;-2.742;2023-12-22T14:34:50;5.72;;;1.98;;
33862;SDS011;20158;51.436;-2.742;2023-12-22T14:37:16;7.53;;;2.08;;
33862;SDS011;20158;51.436;-2.742;2023-12-22T14:39:44;5.47;;;1.70;;